createdAt,value
2022-07-25T00:00:29.969Z,96.60
2022-07-25T00:05:37.955Z,97.20
2022-07-25T00:10:41.216Z,97.40
2022-07-25T00:15:44.487Z,97.60
2022-07-25T00:20:48.932Z,97.80
2022-07-25T00:25:52.208Z,98.00
2022-07-25T00:30:55.888Z,97.60
2022-07-25T00:36:00.705Z,96.50
2022-07-25T00:41:04.198Z,96.90
2022-07-25T00:46:07.466Z,98.20
2022-07-25T00:51:15.981Z,97.80
2022-07-25T00:56:19.129Z,98.90
2022-07-25T01:01:22.232Z,97.50
2022-07-25T01:06:26.826Z,97.50
2022-07-25T01:11:32.043Z,97.50
2022-07-25T01:16:35.060Z,98.00
2022-07-25T01:21:40.681Z,98.20
2022-07-25T01:26:43.776Z,98.50
2022-07-25T01:31:47.046Z,98.60
2022-07-25T01:36:51.491Z,98.70
2022-07-25T01:41:54.701Z,99.20
2022-07-25T01:46:58.006Z,98.90
2022-07-25T01:52:03.160Z,99.20
2022-07-25T01:57:06.250Z,98.60
2022-07-25T02:02:09.382Z,97.90
2022-07-25T02:07:14.170Z,98.50
2022-07-25T02:12:17.236Z,99.10
2022-07-25T02:17:20.478Z,99.80
2022-07-25T02:22:25.038Z,99.90
2022-07-25T02:27:28.551Z,99.90
2022-07-25T02:32:31.599Z,99.90
2022-07-25T02:37:36.068Z,99.90
2022-07-25T02:42:39.230Z,99.90
2022-07-25T02:47:42.318Z,99.90
2022-07-25T02:52:46.911Z,99.90
2022-07-25T02:57:49.994Z,99.90
2022-07-25T03:02:53.079Z,99.90
2022-07-25T03:07:57.897Z,99.90
2022-07-25T03:13:01.017Z,99.90
2022-07-25T03:18:04.232Z,99.90
2022-07-25T03:23:08.708Z,99.90
2022-07-25T03:28:12.338Z,99.90
2022-07-25T03:33:15.879Z,99.90
2022-07-25T03:38:21.578Z,99.90
2022-07-25T03:43:25.577Z,99.90
2022-07-25T03:48:28.880Z,99.90
2022-07-25T03:53:33.371Z,99.90
2022-07-25T03:58:36.479Z,99.90
2022-07-25T04:03:39.740Z,99.90
2022-07-25T04:08:45.606Z,99.90
2022-07-25T04:13:48.660Z,99.90
2022-07-25T04:47:46.570Z,99.90
2022-07-25T04:52:49.727Z,99.90
2022-07-25T04:57:52.832Z,99.90
2022-07-25T05:02:58.045Z,99.90
2022-07-25T05:08:02.561Z,99.90
2022-07-25T05:13:05.684Z,99.90
2022-07-25T05:18:10.130Z,99.90
2022-07-25T05:23:13.505Z,99.90
2022-07-25T05:28:16.630Z,99.90
2022-07-25T05:33:21.063Z,99.90
2022-07-25T05:38:24.822Z,99.30
2022-07-25T05:43:28.040Z,99.00
2022-07-25T05:48:32.644Z,98.40
2022-07-25T05:53:35.721Z,98.50
2022-07-25T05:58:40.544Z,98.60
2022-07-25T06:03:45.006Z,98.80
2022-07-25T06:08:48.710Z,97.90
2022-07-25T06:13:51.827Z,97.60
2022-07-25T06:18:56.390Z,96.80
2022-07-25T06:23:59.647Z,96.70
2022-07-25T06:29:03.200Z,96.10
2022-07-25T06:34:08.286Z,95.60
2022-07-25T06:39:11.666Z,95.80
2022-07-25T06:44:14.904Z,94.00
2022-07-25T06:49:19.615Z,92.90
2022-07-25T06:54:22.828Z,91.70
2022-07-25T06:59:26.196Z,90.80
2022-07-25T07:04:30.955Z,89.50
2022-07-25T07:09:34.106Z,87.90
2022-07-25T07:14:37.762Z,86.70
2022-07-25T07:19:44.583Z,85.50
2022-07-25T07:24:48.228Z,81.40
2022-07-25T07:29:51.577Z,80.20
2022-07-25T07:34:56.631Z,82.00
2022-07-25T07:39:59.721Z,83.00
2022-07-25T07:45:02.820Z,82.70
2022-07-25T07:50:09.201Z,80.50
2022-07-25T07:55:30.341Z,77.70
2022-07-25T08:00:35.937Z,76.60
2022-07-25T08:05:42.112Z,81.30
2022-07-25T08:10:46.311Z,73.30
2022-07-25T08:15:52.806Z,76.30
2022-07-25T08:20:57.444Z,74.90
2022-07-25T08:26:00.736Z,73.30
2022-07-25T08:31:03.877Z,76.10
2022-07-25T08:36:10.930Z,73.20
2022-07-25T08:41:17.008Z,71.80
2022-07-25T08:46:28.860Z,71.30
2022-07-25T08:51:33.693Z,69.20
2022-07-25T08:56:37.100Z,69.10
2022-07-25T09:01:41.092Z,70.20
2022-07-25T09:06:51.782Z,69.20
2022-07-25T09:11:54.880Z,66.50
2022-07-25T09:16:57.983Z,68.00
2022-07-25T09:22:03.686Z,64.60
2022-07-25T09:27:12.517Z,66.60
2022-07-25T09:32:17.677Z,66.70
2022-07-25T09:37:27.631Z,65.60
2022-07-25T09:42:32.412Z,66.90
2022-07-25T09:47:36.798Z,69.40
2022-07-25T09:52:41.382Z,70.00
2022-07-25T09:57:46.107Z,65.40
2022-07-25T10:02:51.738Z,67.00
2022-07-25T10:07:57.519Z,67.10
2022-07-25T10:13:06.406Z,66.30
2022-07-25T10:18:13.417Z,65.40
2022-07-25T10:23:22.138Z,63.70
2022-07-25T10:28:25.180Z,64.10
2022-07-25T10:33:28.834Z,64.40
2022-07-25T10:38:34.023Z,67.60
2022-07-25T10:43:38.800Z,70.70
2022-07-25T10:48:42.202Z,87.40
2022-07-25T10:53:48.391Z,84.00
2022-07-25T10:58:54.854Z,82.30
2022-07-25T11:03:59.189Z,84.90
2022-07-25T11:09:04.214Z,88.00
2022-07-25T11:14:15.248Z,81.50
2022-07-25T11:19:21.114Z,79.20
2022-07-25T11:24:37.260Z,71.20
2022-07-25T11:29:40.541Z,70.30
2022-07-25T11:34:45.186Z,69.90
2022-07-25T11:39:50.202Z,71.40
2022-07-25T11:44:54.507Z,71.60
2022-07-25T11:49:59.175Z,66.30
2022-07-25T11:55:05.226Z,65.30
2022-07-25T12:00:11.585Z,66.50
2022-07-25T12:05:16.090Z,67.90
2022-07-25T12:10:24.165Z,68.00
2022-07-25T12:15:29.042Z,69.40
2022-07-25T12:20:33.527Z,68.20
2022-07-25T12:25:38.795Z,68.00
2022-07-25T12:30:42.891Z,65.90
2022-07-25T12:35:48.797Z,63.70
2022-07-25T12:40:53.587Z,64.50
2022-07-25T12:45:57.212Z,62.60
2022-07-25T12:51:00.366Z,63.70
2022-07-25T12:56:04.956Z,62.00
2022-07-25T13:01:08.159Z,63.70
2022-07-25T13:06:11.434Z,62.30
2022-07-25T13:11:15.993Z,62.70
2022-07-25T13:16:19.105Z,67.90
2022-07-25T13:21:22.694Z,66.50
2022-07-25T13:26:27.184Z,65.30
2022-07-25T13:31:30.337Z,62.30
2022-07-25T13:36:33.819Z,60.30
2022-07-25T13:41:38.211Z,60.90
2022-07-25T13:46:45.268Z,61.60
2022-07-25T13:51:49.750Z,61.80
2022-07-25T13:56:54.277Z,63.40
2022-07-25T14:01:57.481Z,64.00
2022-07-25T14:07:01.269Z,66.10
2022-07-25T14:12:10.306Z,64.40
2022-07-25T14:17:13.599Z,62.30
2022-07-25T14:22:17.215Z,62.90
2022-07-25T14:27:21.680Z,60.00
2022-07-25T14:32:25.211Z,60.80
2022-07-25T14:37:28.687Z,64.50
2022-07-25T14:42:33.328Z,65.80
2022-07-25T14:47:36.394Z,65.90
2022-07-25T14:52:39.513Z,61.60
2022-07-25T14:57:45.407Z,61.20
2022-07-25T15:02:48.703Z,60.30
2022-07-25T15:07:51.795Z,61.80
2022-07-25T15:13:13.991Z,61.00
2022-07-25T15:18:19.639Z,62.60
2022-07-25T15:23:24.744Z,64.00
2022-07-25T15:28:29.512Z,64.00
2022-07-25T15:33:32.561Z,62.40
2022-07-25T15:38:35.611Z,65.00
2022-07-25T15:43:40.065Z,63.10
2022-07-25T15:48:44.073Z,63.20
2022-07-25T15:53:47.407Z,62.80
2022-07-25T15:58:51.940Z,60.30
2022-07-25T16:03:55.383Z,60.90
2022-07-25T16:08:58.854Z,64.60
2022-07-25T16:14:03.334Z,65.10
2022-07-25T16:19:09.531Z,67.90
2022-07-25T16:24:13.047Z,68.90
2022-07-25T16:29:17.602Z,70.20
2022-07-25T16:34:28.651Z,71.50
2022-07-25T16:39:32.301Z,72.10
2022-07-25T16:44:36.850Z,72.80
2022-07-25T16:49:40.019Z,74.70
2022-07-25T16:54:43.185Z,73.20
2022-07-25T16:59:47.685Z,72.80
2022-07-25T17:04:50.874Z,73.40
2022-07-25T17:09:54.221Z,74.70
2022-07-25T17:14:58.588Z,73.50
2022-07-25T17:20:02.186Z,72.20
2022-07-25T17:25:06.308Z,74.00
2022-07-25T17:30:11.963Z,75.00
2022-07-25T17:35:16.207Z,73.90
2022-07-25T17:40:19.305Z,75.50
2022-07-25T17:45:24.326Z,75.10
2022-07-25T17:50:29.565Z,75.50
2022-07-25T17:55:38.244Z,75.50
2022-07-25T18:00:43.289Z,75.80
2022-07-25T18:05:46.770Z,75.80
2022-07-25T18:10:50.521Z,75.00
2022-07-25T18:15:55.125Z,75.80
2022-07-25T18:20:58.724Z,76.00
2022-07-25T18:26:02.034Z,75.50
2022-07-25T18:31:06.571Z,75.80
2022-07-25T18:36:10.079Z,75.10
2022-07-25T18:41:28.607Z,75.50
2022-07-25T18:46:34.010Z,76.00
2022-07-25T18:51:37.278Z,76.20
2022-07-25T18:56:40.395Z,76.00
2022-07-25T19:01:44.951Z,76.80
2022-07-25T19:06:48.189Z,76.90
2022-07-25T19:11:51.386Z,77.10
2022-07-25T19:16:57.580Z,78.10
2022-07-25T19:22:00.738Z,78.10
2022-07-25T19:27:05.148Z,78.50
2022-07-25T19:32:09.637Z,79.00
2022-07-25T19:37:13.583Z,79.00
2022-07-25T19:42:16.750Z,79.40
2022-07-25T19:47:21.518Z,79.70
2022-07-25T19:52:24.813Z,80.00
2022-07-25T19:57:28.105Z,80.30
2022-07-25T20:02:32.848Z,81.00
2022-07-25T20:07:36.084Z,81.20
2022-07-25T20:12:39.458Z,81.90
2022-07-25T20:17:43.977Z,81.80
2022-07-25T20:22:47.996Z,82.20
2022-07-25T20:27:51.650Z,82.20
2022-07-25T20:32:56.111Z,82.40
2022-07-25T20:38:01.587Z,82.60
2022-07-25T20:43:05.794Z,83.30
2022-07-25T20:48:10.769Z,83.30
2022-07-25T20:53:14.186Z,83.60
2022-07-25T20:58:17.319Z,83.10
2022-07-25T21:05:54.487Z,83.30
2022-07-25T21:10:58.793Z,84.00
2022-07-25T21:16:01.806Z,85.00
2022-07-25T21:21:11.734Z,85.10
2022-07-25T21:26:18.164Z,85.20
2022-07-25T21:31:24.427Z,85.90
2022-07-25T21:36:32.675Z,87.00
2022-07-25T21:41:35.835Z,87.30
2022-07-25T21:46:40.578Z,87.60
2022-07-25T21:51:47.354Z,88.50
2022-07-25T21:56:52.484Z,88.20
2022-07-25T22:01:56.695Z,87.80
2022-07-25T22:07:01.134Z,85.10
2022-07-25T22:12:04.473Z,84.60
2022-07-25T22:17:07.541Z,84.80
2022-07-25T22:22:12.394Z,85.00
2022-07-25T22:27:18.316Z,85.20
2022-07-25T22:32:22.126Z,86.00
2022-07-25T22:37:26.993Z,87.00
2022-07-25T22:42:35.858Z,87.40
2022-07-25T22:47:39.027Z,87.90
2022-07-25T22:52:43.437Z,90.20
2022-07-25T22:57:46.803Z,89.20
2022-07-25T23:02:50.387Z,89.00
2022-07-25T23:07:54.943Z,88.50
2022-07-25T23:12:57.970Z,88.90
2022-07-25T23:18:01.320Z,87.90
2022-07-25T23:23:06.065Z,88.70
2022-07-25T23:28:09.063Z,89.50
2022-07-25T23:33:12.483Z,88.20
2022-07-25T23:38:16.807Z,88.70
2022-07-25T23:43:24.754Z,87.50
2022-07-25T23:48:41.327Z,88.20
2022-07-25T23:53:45.879Z,88.20
2022-07-25T23:58:50.289Z,89.30
